createdAt,value
2022-10-22T00:00:15.693Z,10.55
2022-10-22T00:02:43.290Z,8.93
2022-10-22T00:05:11.353Z,7.03
2022-10-22T00:07:38.813Z,6.72
2022-10-22T00:10:08.078Z,5.97
2022-10-22T00:12:35.548Z,11.95
2022-10-22T00:15:03.561Z,6.60
2022-10-22T00:17:30.882Z,9.50
2022-10-22T00:19:57.926Z,6.30
2022-10-22T00:22:24.995Z,7.35
2022-10-22T00:24:52.185Z,6.95
2022-10-22T00:27:19.207Z,6.25
2022-10-22T00:29:46.269Z,6.45
2022-10-22T00:32:13.723Z,7.47
2022-10-22T00:34:40.730Z,4.85
2022-10-22T00:37:07.785Z,4.40
2022-10-22T00:39:35.019Z,6.80
2022-10-22T00:42:02.051Z,6.10
2022-10-22T00:45:07.548Z,7.20
2022-10-22T00:47:37.357Z,7.53
2022-10-22T00:50:08.366Z,7.50
2022-10-22T00:52:36.766Z,4.82
2022-10-22T00:55:05.856Z,4.88
2022-10-22T00:57:34.998Z,4.85
2022-10-22T01:00:02.189Z,7.38
2022-10-22T01:02:29.443Z,4.85
2022-10-22T01:04:56.526Z,8.00
2022-10-22T01:07:25.940Z,6.10
2022-10-22T01:10:19.147Z,10.48
2022-10-22T01:13:05.011Z,7.00
2022-10-22T01:15:42.700Z,5.03
2022-10-22T01:18:34.623Z,6.15
2022-10-22T01:21:15.723Z,5.88
2022-10-22T01:24:04.289Z,7.68
2022-10-22T01:27:06.200Z,7.40
2022-10-22T01:32:11.960Z,5.68
2022-10-22T01:34:41.781Z,5.70
2022-10-22T01:37:10.902Z,7.43
2022-10-22T01:39:40.808Z,5.75
2022-10-22T01:42:08.109Z,6.35
2022-10-22T01:44:37.305Z,5.75
2022-10-22T01:47:04.848Z,4.93
2022-10-22T01:50:01.128Z,5.57
2022-10-22T01:53:00.450Z,7.40
2022-10-22T01:55:42.199Z,5.72
2022-10-22T01:58:54.496Z,5.53
2022-10-22T02:01:34.241Z,5.05
2022-10-22T02:04:25.779Z,5.32
2022-10-22T02:06:57.347Z,4.80
2022-10-22T02:09:27.698Z,7.10
2022-10-22T02:11:56.018Z,6.80
2022-10-22T02:14:25.717Z,6.10
2022-10-22T02:16:53.548Z,5.25
2022-10-22T02:19:34.505Z,6.15
2022-10-22T02:22:01.884Z,4.90
2022-10-22T02:24:29.472Z,7.03
2022-10-22T02:27:18.266Z,4.82
2022-10-22T02:30:29.925Z,7.63
2022-10-22T02:33:18.400Z,4.30
2022-10-22T02:35:46.641Z,8.95
2022-10-22T02:38:14.729Z,5.53
2022-10-22T02:40:42.248Z,5.40
2022-10-22T02:43:10.348Z,4.75
2022-10-22T02:45:37.963Z,6.07
2022-10-22T02:48:05.617Z,5.53
2022-10-22T02:50:32.669Z,5.32
2022-10-22T02:52:59.761Z,4.88
2022-10-22T02:55:27.096Z,5.97
2022-10-22T02:57:54.113Z,6.10
2022-10-22T03:00:21.455Z,6.50
2022-10-22T03:02:48.817Z,4.88
2022-10-22T03:05:16.010Z,5.22
2022-10-22T03:07:43.307Z,5.57
2022-10-22T03:10:10.728Z,5.75
2022-10-22T03:12:37.764Z,5.65
2022-10-22T03:15:05.224Z,5.90
2022-10-22T03:17:32.517Z,5.35
2022-10-22T03:19:59.535Z,5.20
2022-10-22T03:22:29.773Z,4.60
2022-10-22T03:25:01.122Z,5.82
2022-10-22T03:27:30.532Z,4.85
2022-10-22T03:29:58.988Z,4.60
2022-10-22T03:32:26.209Z,6.55
2022-10-22T03:34:53.257Z,4.35
2022-10-22T03:37:20.921Z,6.28
2022-10-22T03:39:48.248Z,5.88
2022-10-22T03:42:16.353Z,7.32
2022-10-22T03:44:43.829Z,6.78
2022-10-22T03:47:11.101Z,8.25
2022-10-22T03:49:38.199Z,4.18
2022-10-22T03:52:12.847Z,4.35
2022-10-22T03:54:40.439Z,5.40
2022-10-22T03:57:08.392Z,9.18
2022-10-22T03:59:38.320Z,4.78
2022-10-22T04:02:05.472Z,4.68
2022-10-22T04:04:33.094Z,5.60
2022-10-22T04:07:00.552Z,4.75
2022-10-22T04:09:27.592Z,6.78
2022-10-22T04:11:54.641Z,8.60
2022-10-22T04:14:21.934Z,5.25
2022-10-22T04:16:49.003Z,5.75
2022-10-22T04:19:16.139Z,6.60
2022-10-22T04:21:43.335Z,5.28
2022-10-22T04:24:10.506Z,5.40
2022-10-22T04:26:37.537Z,4.53
2022-10-22T04:29:06.955Z,5.35
2022-10-22T04:31:34.264Z,4.88
2022-10-22T04:34:01.800Z,6.40
2022-10-22T04:36:29.817Z,8.55
2022-10-22T04:38:59.532Z,5.13
2022-10-22T04:41:29.092Z,5.45
2022-10-22T04:43:57.469Z,5.45
2022-10-22T04:46:26.820Z,5.90
2022-10-22T04:48:54.167Z,4.50
2022-10-22T04:51:23.490Z,4.30
2022-10-22T04:53:51.181Z,4.53
2022-10-22T04:56:21.125Z,3.92
2022-10-22T04:58:50.836Z,7.75
2022-10-22T05:01:41.914Z,4.47
2022-10-22T05:04:13.978Z,4.00
2022-10-22T05:06:41.724Z,4.68
2022-10-22T05:09:16.318Z,3.88
2022-10-22T05:11:46.434Z,3.47
2022-10-22T05:14:13.528Z,3.97
2022-10-22T05:16:40.842Z,4.03
2022-10-22T05:19:08.478Z,3.70
2022-10-22T05:21:37.656Z,5.60
2022-10-22T05:24:05.205Z,4.18
2022-10-22T05:26:32.396Z,4.63
2022-10-22T05:29:00.622Z,3.55
2022-10-22T05:31:29.316Z,3.15
2022-10-22T05:33:56.446Z,5.18
2022-10-22T05:36:24.567Z,3.75
2022-10-22T05:38:51.861Z,4.55
2022-10-22T05:41:23.897Z,3.42
2022-10-22T05:43:51.282Z,3.92
2022-10-22T05:46:22.822Z,3.45
2022-10-22T05:48:59.189Z,3.83
2022-10-22T05:51:28.273Z,3.38
2022-10-22T05:53:57.995Z,3.40
2022-10-22T05:56:26.180Z,4.38
2022-10-22T05:58:53.781Z,3.40
2022-10-22T06:01:31.345Z,4.75
2022-10-22T06:04:01.218Z,3.10
2022-10-22T06:06:34.196Z,7.60
2022-10-22T06:09:24.058Z,7.13
2022-10-22T06:11:51.806Z,6.10
2022-10-22T06:14:20.372Z,5.82
2022-10-22T06:16:47.750Z,7.32
2022-10-22T06:19:17.367Z,6.82
2022-10-22T06:21:44.893Z,6.43
2022-10-22T06:24:12.594Z,5.57
2022-10-22T06:26:40.135Z,5.07
2022-10-22T06:29:07.858Z,4.93
2022-10-22T06:31:37.204Z,5.50
2022-10-22T06:34:10.475Z,6.07
2022-10-22T06:36:38.594Z,5.25
2022-10-22T06:39:06.066Z,4.22
2022-10-22T06:41:33.286Z,4.80
2022-10-22T06:44:00.706Z,4.70
2022-10-22T06:46:28.302Z,5.00
2022-10-22T06:48:59.108Z,4.72
2022-10-22T06:51:27.457Z,5.53
2022-10-22T06:53:56.175Z,4.38
2022-10-22T06:56:25.230Z,4.53
2022-10-22T06:58:53.925Z,4.35
2022-10-22T07:01:23.850Z,3.80
2022-10-22T07:03:52.050Z,4.35
2022-10-22T07:06:20.193Z,4.60
2022-10-22T07:08:47.317Z,5.55
2022-10-22T07:11:20.038Z,3.90
2022-10-22T07:13:48.695Z,3.72
2022-10-22T07:16:17.366Z,3.50
2022-10-22T07:18:45.345Z,3.75
2022-10-22T07:21:13.542Z,3.40
2022-10-22T07:23:40.586Z,3.92
2022-10-22T07:26:09.061Z,3.70
2022-10-22T07:28:39.989Z,3.08
2022-10-22T07:31:12.878Z,3.20
2022-10-22T07:33:40.815Z,3.20
2022-10-22T07:36:10.807Z,2.72
2022-10-22T07:38:38.163Z,2.03
2022-10-22T07:41:05.344Z,3.53
2022-10-22T07:43:32.524Z,1.98
2022-10-22T07:46:00.754Z,1.95
2022-10-22T07:48:27.826Z,2.10
2022-10-22T07:50:55.111Z,2.28
2022-10-22T07:53:22.515Z,3.95
2022-10-22T07:55:51.008Z,2.15
2022-10-22T07:58:23.018Z,3.05
2022-10-22T08:00:50.913Z,2.00
2022-10-22T08:03:18.759Z,2.00
2022-10-22T08:05:46.496Z,2.65
2022-10-22T08:08:15.037Z,3.25
2022-10-22T08:10:43.172Z,2.22
2022-10-22T08:13:10.522Z,2.15
2022-10-22T08:15:37.878Z,2.40
2022-10-22T08:18:05.495Z,2.47
2022-10-22T08:20:32.796Z,3.38
2022-10-22T08:22:59.929Z,2.42
2022-10-22T08:25:27.653Z,2.47
2022-10-22T08:27:54.824Z,2.15
2022-10-22T08:30:22.079Z,2.17
2022-10-22T08:32:51.665Z,2.25
2022-10-22T08:35:21.653Z,1.80
2022-10-22T08:37:48.750Z,4.65
2022-10-22T08:40:35.089Z,1.92
2022-10-22T08:43:20.953Z,2.45
2022-10-22T08:46:06.209Z,2.10
2022-10-22T08:48:50.044Z,5.05
2022-10-22T08:51:20.913Z,3.47
2022-10-22T08:53:56.866Z,2.00
2022-10-22T08:56:24.322Z,2.70
2022-10-22T08:59:19.767Z,2.13
2022-10-22T09:01:49.578Z,3.47
2022-10-22T09:04:32.965Z,2.17
2022-10-22T09:07:01.123Z,2.97
2022-10-22T09:09:35.331Z,2.33
2022-10-22T09:12:06.984Z,2.55
2022-10-22T09:14:35.577Z,2.03
2022-10-22T09:17:35.992Z,2.17
2022-10-22T09:20:27.063Z,2.53
2022-10-22T09:23:40.791Z,2.38
2022-10-22T09:26:20.240Z,2.42
2022-10-22T09:28:51.447Z,1.88
2022-10-22T09:31:19.038Z,2.95
2022-10-22T09:33:55.650Z,2.30
2022-10-22T09:36:36.583Z,2.20
2022-10-22T09:41:47.915Z,3.00
2022-10-22T09:44:23.556Z,2.03
2022-10-22T09:46:56.894Z,1.92
2022-10-22T09:49:27.165Z,1.50
2022-10-22T09:52:02.617Z,5.10
2022-10-22T09:54:42.549Z,1.67
2022-10-22T09:57:34.251Z,2.25
2022-10-22T10:03:06.011Z,2.45
2022-10-22T10:08:40.566Z,2.20
2022-10-22T10:11:37.542Z,2.40
2022-10-22T10:14:32.742Z,1.98
2022-10-22T10:17:24.034Z,1.98
2022-10-22T10:23:05.066Z,1.30
2022-10-22T10:25:38.294Z,1.27
2022-10-22T10:28:16.219Z,3.58
2022-10-22T10:31:15.788Z,1.42
2022-10-22T10:33:49.119Z,1.60
2022-10-22T10:36:42.709Z,1.88
2022-10-22T10:39:32.260Z,3.22
2022-10-22T10:42:21.069Z,2.72
2022-10-22T10:45:14.464Z,1.77
2022-10-22T10:48:19.011Z,1.60
2022-10-22T10:50:56.475Z,1.67
2022-10-22T10:53:42.144Z,1.50
2022-10-22T10:56:45.510Z,1.50
2022-10-22T10:59:15.294Z,1.40
2022-10-22T11:02:02.411Z,2.45
2022-10-22T11:04:50.450Z,1.85
2022-10-22T11:07:35.603Z,1.20
2022-10-22T11:10:33.298Z,1.90
2022-10-22T11:13:17.968Z,1.45
2022-10-22T11:15:53.491Z,2.30
2022-10-22T11:18:43.221Z,1.83
2022-10-22T11:21:36.691Z,2.58
2022-10-22T11:24:36.146Z,2.10
2022-10-22T11:27:22.513Z,2.28
2022-10-22T11:29:58.053Z,3.42
2022-10-22T11:32:27.260Z,2.97
2022-10-22T11:34:58.644Z,1.70
2022-10-22T11:37:33.167Z,3.33
2022-10-22T11:40:07.705Z,2.22
2022-10-22T11:42:38.028Z,2.38
2022-10-22T11:45:14.372Z,2.40
2022-10-22T11:48:09.719Z,2.50
2022-10-22T11:50:47.732Z,2.05
2022-10-22T11:53:14.757Z,2.83
2022-10-22T11:55:48.957Z,3.85
2022-10-22T11:58:32.596Z,2.70
2022-10-22T12:01:05.304Z,2.10
2022-10-22T12:03:33.314Z,2.03
2022-10-22T12:06:12.635Z,2.20
2022-10-22T12:08:47.159Z,2.53
2022-10-22T12:11:19.702Z,2.13
2022-10-22T12:13:58.863Z,2.70
2022-10-22T12:16:57.559Z,2.30
2022-10-22T12:19:32.811Z,2.97
2022-10-22T12:22:17.305Z,5.07
2022-10-22T12:24:50.043Z,3.05
2022-10-22T12:27:30.223Z,4.78
2022-10-22T12:30:01.231Z,3.28
2022-10-22T12:32:43.135Z,4.85
2022-10-22T12:35:24.447Z,3.67
2022-10-22T12:37:55.349Z,3.05
2022-10-22T12:40:29.537Z,8.10
2022-10-22T12:45:50.974Z,4.53
2022-10-22T12:51:10.288Z,3.25
2022-10-22T12:53:48.650Z,5.78
2022-10-22T12:56:24.198Z,5.10
2022-10-22T12:58:58.279Z,8.20
2022-10-22T13:01:29.490Z,7.85
2022-10-22T13:04:13.817Z,4.53
2022-10-22T13:06:46.191Z,4.20
2022-10-22T13:09:20.438Z,3.75
2022-10-22T13:11:53.798Z,3.30
2022-10-22T13:14:43.143Z,2.97
2022-10-22T13:17:15.274Z,2.83
2022-10-22T13:19:50.487Z,2.40
2022-10-22T13:22:33.130Z,2.50
2022-10-22T13:25:14.092Z,2.60
2022-10-22T13:27:50.987Z,1.92
2022-10-22T13:30:26.894Z,3.17
2022-10-22T13:33:00.548Z,3.55
2022-10-22T13:35:50.629Z,10.20
2022-10-22T13:38:20.545Z,3.20
2022-10-22T13:40:57.788Z,2.85
2022-10-22T13:43:25.676Z,4.65
2022-10-22T13:45:57.619Z,2.60
2022-10-22T13:48:26.333Z,2.45
2022-10-22T13:50:54.256Z,3.90
2022-10-22T13:53:23.988Z,4.07
2022-10-22T13:55:51.044Z,2.90
2022-10-22T13:58:21.364Z,2.63
2022-10-22T14:00:55.986Z,4.55
2022-10-22T14:03:34.674Z,3.25
2022-10-22T14:06:01.966Z,2.60
2022-10-22T14:08:29.551Z,2.50
2022-10-22T14:10:56.763Z,2.63
2022-10-22T14:13:24.098Z,2.83
2022-10-22T14:15:52.716Z,4.00
2022-10-22T14:18:27.743Z,3.67
2022-10-22T14:20:58.165Z,2.45
2022-10-22T14:23:30.409Z,2.38
2022-10-22T14:25:58.611Z,2.30
2022-10-22T14:28:25.705Z,2.55
2022-10-22T14:30:53.171Z,2.10
2022-10-22T14:33:31.946Z,2.60
2022-10-22T14:36:01.551Z,2.53
2022-10-22T14:38:29.060Z,3.20
2022-10-22T14:40:56.555Z,2.38
2022-10-22T14:43:29.229Z,3.17
2022-10-22T14:45:56.338Z,2.50
2022-10-22T14:48:24.693Z,4.72
2022-10-22T14:50:52.010Z,2.60
2022-10-22T14:53:19.149Z,3.65
2022-10-22T14:55:47.801Z,3.28
2022-10-22T14:58:15.364Z,2.83
2022-10-22T15:00:43.662Z,2.92
2022-10-22T15:03:12.187Z,3.38
2022-10-22T15:05:44.984Z,3.70
2022-10-22T15:08:14.551Z,5.30
2022-10-22T15:10:42.041Z,2.92
2022-10-22T15:13:10.315Z,3.22
2022-10-22T15:15:49.758Z,3.60
2022-10-22T15:18:18.591Z,3.50
2022-10-22T15:20:46.790Z,3.00
2022-10-22T15:23:14.671Z,6.22
2022-10-22T15:25:45.175Z,3.20
2022-10-22T15:28:12.832Z,2.90
2022-10-22T15:30:40.391Z,3.65
2022-10-22T15:33:08.007Z,3.70
2022-10-22T15:35:35.956Z,5.82
2022-10-22T15:38:03.792Z,4.28
2022-10-22T15:40:31.635Z,5.13
2022-10-22T15:45:54.561Z,7.10
2022-10-22T15:48:21.687Z,5.13
2022-10-22T15:50:54.854Z,5.47
2022-10-22T15:53:24.571Z,6.53
2022-10-22T15:55:53.144Z,6.10
2022-10-22T15:58:21.101Z,5.10
2022-10-22T16:00:48.877Z,6.53
2022-10-22T16:03:17.417Z,7.22
2022-10-22T16:05:57.744Z,5.70
2022-10-22T16:08:26.538Z,6.00
2022-10-22T16:10:54.452Z,5.85
2022-10-22T16:13:24.592Z,5.95
2022-10-22T16:16:01.356Z,6.00
2022-10-22T16:18:30.936Z,4.60
2022-10-22T16:20:59.717Z,5.13
2022-10-22T16:23:28.904Z,7.10
2022-10-22T16:25:56.722Z,7.28
2022-10-22T16:28:24.608Z,5.20
2022-10-22T16:30:52.869Z,5.65
2022-10-22T16:33:20.884Z,4.70
2022-10-22T16:35:49.524Z,5.55
2022-10-22T16:38:23.516Z,8.50
2022-10-22T16:40:53.243Z,6.70
2022-10-22T16:43:20.986Z,5.03
2022-10-22T16:45:51.925Z,7.50
2022-10-22T16:48:20.032Z,5.57
2022-10-22T16:50:59.913Z,6.07
2022-10-22T16:53:27.430Z,7.03
2022-10-22T16:55:58.908Z,5.03
2022-10-22T17:00:54.023Z,5.97
2022-10-22T17:03:24.563Z,6.20
2022-10-22T17:05:58.581Z,6.10
2022-10-22T17:08:26.161Z,9.27
2022-10-22T17:10:53.610Z,6.82
2022-10-22T17:13:20.948Z,8.68
2022-10-22T17:15:48.961Z,6.65
2022-10-22T17:18:17.166Z,6.82
2022-10-22T17:20:45.588Z,6.93
2022-10-22T17:23:14.045Z,6.70
2022-10-22T17:25:45.745Z,7.38
2022-10-22T17:28:13.973Z,7.88
2022-10-22T17:30:41.459Z,6.85
2022-10-22T17:33:09.772Z,7.82
2022-10-22T17:35:41.373Z,7.00
2022-10-22T17:38:09.205Z,6.20
2022-10-22T17:40:38.069Z,12.80
2022-10-22T17:43:06.112Z,9.27
2022-10-22T17:45:33.903Z,7.43
2022-10-22T17:48:02.706Z,6.13
2022-10-22T17:50:30.614Z,8.77
2022-10-22T17:52:58.609Z,7.18
2022-10-22T17:55:26.529Z,7.57
2022-10-22T17:57:54.375Z,5.63
2022-10-22T18:00:22.177Z,7.07
2022-10-22T18:02:49.816Z,9.30
2022-10-22T18:05:17.682Z,5.40
2022-10-22T18:07:45.490Z,8.23
2022-10-22T18:10:12.760Z,5.93
2022-10-22T18:12:40.474Z,5.50
2022-10-22T18:15:08.639Z,10.15
2022-10-22T18:17:39.568Z,5.80
2022-10-22T18:20:07.615Z,6.35
2022-10-22T18:22:36.042Z,8.15
2022-10-22T18:25:03.671Z,6.72
2022-10-22T18:27:30.998Z,6.80
2022-10-22T18:29:58.147Z,7.40
2022-10-22T18:32:25.594Z,7.60
2022-10-22T18:34:53.052Z,9.93
2022-10-22T18:37:21.217Z,6.43
2022-10-22T18:39:49.820Z,6.50
2022-10-22T18:42:17.066Z,5.63
2022-10-22T18:44:44.209Z,6.88
2022-10-22T18:47:12.658Z,11.68
2022-10-22T18:49:40.876Z,7.50
2022-10-22T18:52:08.294Z,6.40
2022-10-22T18:54:36.651Z,6.45
2022-10-22T18:57:05.463Z,6.78
2022-10-22T18:59:33.341Z,7.57
2022-10-22T19:02:00.794Z,6.32
2022-10-22T19:04:33.437Z,7.13
2022-10-22T19:07:00.864Z,7.20
2022-10-22T19:09:29.857Z,6.30
2022-10-22T19:11:57.351Z,6.57
2022-10-22T19:14:25.468Z,6.50
2022-10-22T19:16:53.145Z,4.60
2022-10-22T19:19:22.695Z,18.58
2022-10-22T19:21:50.689Z,14.05
2022-10-22T19:24:20.099Z,22.80
2022-10-22T19:26:48.327Z,20.67
2022-10-22T19:29:17.363Z,10.80
2022-10-22T19:31:45.332Z,7.00
2022-10-22T19:34:13.343Z,9.00
2022-10-22T19:36:42.301Z,8.38
2022-10-22T19:39:09.954Z,9.75
2022-10-22T19:41:37.861Z,14.05
2022-10-22T19:44:05.941Z,16.35
2022-10-22T19:46:33.855Z,16.50
2022-10-22T19:49:03.751Z,13.10
2022-10-22T19:51:34.035Z,13.63
2022-10-22T19:54:07.417Z,15.68
2022-10-22T19:56:38.369Z,11.88
2022-10-22T19:59:06.771Z,10.35
2022-10-22T20:01:34.719Z,10.38
2022-10-22T20:04:02.745Z,8.77
2022-10-22T20:06:31.238Z,10.85
2022-10-22T20:08:59.774Z,3.22
2022-10-22T20:11:29.774Z,11.27
2022-10-22T20:13:58.418Z,4.93
2022-10-22T20:16:30.285Z,6.32
2022-10-22T20:19:04.593Z,6.07
2022-10-22T20:21:33.834Z,5.25
2022-10-22T20:24:02.052Z,3.67
2022-10-22T20:26:57.959Z,7.93
2022-10-22T20:29:26.037Z,9.98
2022-10-22T20:31:54.581Z,39.97
2022-10-22T20:34:22.874Z,14.05
2022-10-22T20:36:50.994Z,6.97
2022-10-22T20:39:19.701Z,10.32
2022-10-22T20:41:47.602Z,9.55
2022-10-22T20:44:20.028Z,17.50
2022-10-22T20:46:47.903Z,8.80
2022-10-22T20:49:17.828Z,10.68
2022-10-22T20:51:46.089Z,10.65
2022-10-22T20:54:16.032Z,8.30
2022-10-22T20:56:44.067Z,12.90
2022-10-22T20:59:12.789Z,11.73
2022-10-22T21:01:44.720Z,14.82
2022-10-22T21:04:12.484Z,10.60
2022-10-22T21:06:41.693Z,9.60
2022-10-22T21:09:11.691Z,10.63
2022-10-22T21:11:40.213Z,15.70
2022-10-22T21:14:09.077Z,20.67
2022-10-22T21:16:40.068Z,37.25
2022-10-22T21:19:07.195Z,48.47
2022-10-22T21:21:34.436Z,43.55
2022-10-22T21:24:02.038Z,39.97
2022-10-22T21:26:29.191Z,35.83
2022-10-22T21:28:56.389Z,22.20
2022-10-22T21:31:26.336Z,21.25
2022-10-22T21:33:54.459Z,15.48
2022-10-22T21:36:23.488Z,13.40
2022-10-22T21:38:52.183Z,12.93
2022-10-22T21:41:21.290Z,9.75
2022-10-22T21:43:49.085Z,11.27
2022-10-22T21:46:25.075Z,14.15
2022-10-22T21:49:02.247Z,13.27
2022-10-22T21:51:31.589Z,12.20
2022-10-22T21:53:58.746Z,9.95
2022-10-22T21:56:28.738Z,9.20
2022-10-22T21:58:55.842Z,10.13
2022-10-22T22:01:23.903Z,8.43
2022-10-22T22:03:52.927Z,11.40
2022-10-22T22:06:22.683Z,9.05
2022-10-22T22:08:54.868Z,10.15
2022-10-22T22:11:25.344Z,9.75
2022-10-22T22:13:54.086Z,6.88
2022-10-22T22:16:27.329Z,7.72
2022-10-22T22:18:57.568Z,7.45
2022-10-22T22:21:25.189Z,5.60
2022-10-22T22:23:52.550Z,9.15
2022-10-22T22:26:28.304Z,10.60
2022-10-22T22:28:58.578Z,12.13
2022-10-22T22:31:32.357Z,11.80
2022-10-22T22:34:02.200Z,11.07
2022-10-22T22:36:34.435Z,16.17
2022-10-22T22:39:01.568Z,10.45
2022-10-22T22:41:28.645Z,17.00
2022-10-22T22:46:22.842Z,9.75
2022-10-22T22:48:50.582Z,8.98
2022-10-22T22:51:18.647Z,9.25
2022-10-22T22:53:45.985Z,6.53
2022-10-22T22:56:19.715Z,7.65
2022-10-22T22:58:46.989Z,5.82
2022-10-22T23:01:34.627Z,5.40
2022-10-22T23:04:16.506Z,7.43
2022-10-22T23:06:44.002Z,6.13
2022-10-22T23:09:14.037Z,7.28
2022-10-22T23:11:43.489Z,8.32
2022-10-22T23:14:14.032Z,5.70
2022-10-22T23:16:45.838Z,6.90
2022-10-22T23:19:16.219Z,7.53
2022-10-22T23:21:52.907Z,7.50
2022-10-22T23:24:23.098Z,8.65
2022-10-22T23:26:52.580Z,9.00
2022-10-22T23:29:26.341Z,6.82
2022-10-22T23:31:55.012Z,8.82
2022-10-22T23:34:24.343Z,7.90
2022-10-22T23:36:53.012Z,10.52
2022-10-22T23:39:23.103Z,7.35
2022-10-22T23:41:51.002Z,7.78
2022-10-22T23:44:18.289Z,8.23
2022-10-22T23:46:45.533Z,9.80
2022-10-22T23:49:13.619Z,9.73
2022-10-22T23:51:41.772Z,14.27
2022-10-22T23:54:12.673Z,15.35
2022-10-22T23:56:40.016Z,13.98
2022-10-22T23:59:08.489Z,10.38
